sensor_id;sensor_type;location;lat;lon;timestamp;temperature;humidity
13944;DHT22;7044;53.286;8.534;2024-03-07T00:00:11;3.50;99.90
13944;DHT22;7044;53.286;8.534;2024-03-07T00:02:42;3.60;99.90
13944;DHT22;7044;53.286;8.534;2024-03-07T00:05:09;3.70;99.90
13944;DHT22;7044;53.286;8.534;2024-03-07T00:07:37;3.70;99.90
13944;DHT22;7044;53.286;8.534;2024-03-07T00:10:06;3.40;99.90
13944;DHT22;7044;53.286;8.534;2024-03-07T00:12:34;3.60;99.90
13944;DHT22;7044;53.286;8.534;2024-03-07T00:15:01;3.50;99.90
13944;DHT22;7044;53.286;8.534;2024-03-07T00:17:28;3.50;99.90
13944;DHT22;7044;53.286;8.534;2024-03-07T00:19:55;3.50;99.90
13944;DHT22;7044;53.286;8.534;2024-03-07T00:22:22;3.40;99.90
13944;DHT22;7044;53.286;8.534;2024-03-07T00:24:49;3.40;99.90
13944;DHT22;7044;53.286;8.534;2024-03-07T00:27:18;3.30;99.90
13944;DHT22;7044;53.286;8.534;2024-03-07T00:29:46;3.30;99.90
13944;DHT22;7044;53.286;8.534;2024-03-07T00:32:18;3.30;99.90
13944;DHT22;7044;53.286;8.534;2024-03-07T00:34:45;3.20;99.90
13944;DHT22;7044;53.286;8.534;2024-03-07T00:37:12;3.10;99.90
13944;DHT22;7044;53.286;8.534;2024-03-07T00:39:39;3.10;99.90
13944;DHT22;7044;53.286;8.534;2024-03-07T00:42:06;3.00;99.90
13944;DHT22;7044;53.286;8.534;2024-03-07T00:44:34;2.90;99.90
13944;DHT22;7044;53.286;8.534;2024-03-07T00:47:02;3.80;99.90
13944;DHT22;7044;53.286;8.534;2024-03-07T00:49:30;3.00;99.90
13944;DHT22;7044;53.286;8.534;2024-03-07T00:51:58;2.70;99.90
13944;DHT22;7044;53.286;8.534;2024-03-07T00:54:24;2.60;99.90
13944;DHT22;7044;53.286;8.534;2024-03-07T00:56:51;2.60;99.90
13944;DHT22;7044;53.286;8.534;2024-03-07T00:59:19;2.60;99.90
13944;DHT22;7044;53.286;8.534;2024-03-07T01:01:47;2.60;99.90
13944;DHT22;7044;53.286;8.534;2024-03-07T01:04:14;2.40;99.90
13944;DHT22;7044;53.286;8.534;2024-03-07T01:06:41;2.40;99.90
13944;DHT22;7044;53.286;8.534;2024-03-07T01:11:40;1.60;99.90
13944;DHT22;7044;53.286;8.534;2024-03-07T01:14:07;2.00;99.90
13944;DHT22;7044;53.286;8.534;2024-03-07T01:16:34;2.30;99.90
13944;DHT22;7044;53.286;8.534;2024-03-07T01:19:03;2.30;99.90
13944;DHT22;7044;53.286;8.534;2024-03-07T01:21:31;-1.70;99.90
13944;DHT22;7044;53.286;8.534;2024-03-07T01:23:58;2.10;99.90
13944;DHT22;7044;53.286;8.534;2024-03-07T01:26:26;2.30;99.90
13944;DHT22;7044;53.286;8.534;2024-03-07T01:28:53;2.30;99.90
13944;DHT22;7044;53.286;8.534;2024-03-07T01:31:20;2.30;99.90
13944;DHT22;7044;53.286;8.534;2024-03-07T01:33:47;2.10;99.90
13944;DHT22;7044;53.286;8.534;2024-03-07T01:36:15;2.20;99.90
13944;DHT22;7044;53.286;8.534;2024-03-07T01:38:42;2.20;99.90
13944;DHT22;7044;53.286;8.534;2024-03-07T01:41:09;2.20;99.90
13944;DHT22;7044;53.286;8.534;2024-03-07T01:43:36;2.30;99.90
13944;DHT22;7044;53.286;8.534;2024-03-07T01:46:03;2.00;99.90
13944;DHT22;7044;53.286;8.534;2024-03-07T01:48:31;2.00;99.90
13944;DHT22;7044;53.286;8.534;2024-03-07T01:50:58;1.90;99.90
13944;DHT22;7044;53.286;8.534;2024-03-07T01:53:27;2.00;99.90
13944;DHT22;7044;53.286;8.534;2024-03-07T01:55:56;2.10;99.90
13944;DHT22;7044;53.286;8.534;2024-03-07T01:58:24;2.10;99.90
13944;DHT22;7044;53.286;8.534;2024-03-07T02:03:21;2.10;99.90
13944;DHT22;7044;53.286;8.534;2024-03-07T02:05:48;2.10;99.90
13944;DHT22;7044;53.286;8.534;2024-03-07T02:08:16;2.10;99.90
13944;DHT22;7044;53.286;8.534;2024-03-07T02:10:44;1.90;99.90
13944;DHT22;7044;53.286;8.534;2024-03-07T02:13:11;1.90;99.90
13944;DHT22;7044;53.286;8.534;2024-03-07T02:15:38;1.90;99.90
13944;DHT22;7044;53.286;8.534;2024-03-07T02:18:05;1.90;99.90
13944;DHT22;7044;53.286;8.534;2024-03-07T02:20:34;1.70;99.90
13944;DHT22;7044;53.286;8.534;2024-03-07T02:23:03;1.70;99.90
13944;DHT22;7044;53.286;8.534;2024-03-07T02:25:30;2.40;99.90
13944;DHT22;7044;53.286;8.534;2024-03-07T02:27:57;1.70;99.90
13944;DHT22;7044;53.286;8.534;2024-03-07T02:30:24;1.70;99.90
13944;DHT22;7044;53.286;8.534;2024-03-07T02:32:51;1.70;99.90
13944;DHT22;7044;53.286;8.534;2024-03-07T02:35:20;1.80;99.90
13944;DHT22;7044;53.286;8.534;2024-03-07T02:37:47;2.40;99.90
13944;DHT22;7044;53.286;8.534;2024-03-07T02:40:16;1.90;99.90
13944;DHT22;7044;53.286;8.534;2024-03-07T02:42:43;1.90;99.90
13944;DHT22;7044;53.286;8.534;2024-03-07T02:45:10;1.90;99.90
13944;DHT22;7044;53.286;8.534;2024-03-07T02:47:41;2.30;99.90
13944;DHT22;7044;53.286;8.534;2024-03-07T02:50:10;0.70;99.90
13944;DHT22;7044;53.286;8.534;2024-03-07T02:52:37;2.00;99.90
13944;DHT22;7044;53.286;8.534;2024-03-07T02:55:05;2.00;99.90
13944;DHT22;7044;53.286;8.534;2024-03-07T02:57:37;2.00;99.90
13944;DHT22;7044;53.286;8.534;2024-03-07T03:00:04;2.60;99.90
13944;DHT22;7044;53.286;8.534;2024-03-07T03:02:45;2.00;99.90
13944;DHT22;7044;53.286;8.534;2024-03-07T03:05:13;2.20;99.90
13944;DHT22;7044;53.286;8.534;2024-03-07T03:07:40;2.20;99.90
13944;DHT22;7044;53.286;8.534;2024-03-07T03:10:08;2.20;99.90
13944;DHT22;7044;53.286;8.534;2024-03-07T03:12:38;2.30;99.90
13944;DHT22;7044;53.286;8.534;2024-03-07T03:15:07;2.20;99.90
13944;DHT22;7044;53.286;8.534;2024-03-07T03:17:35;2.20;99.90
13944;DHT22;7044;53.286;8.534;2024-03-07T03:20:02;2.20;99.90
13944;DHT22;7044;53.286;8.534;2024-03-07T03:22:35;2.30;99.90
13944;DHT22;7044;53.286;8.534;2024-03-07T03:25:02;2.30;99.90
13944;DHT22;7044;53.286;8.534;2024-03-07T03:27:29;2.40;99.90
13944;DHT22;7044;53.286;8.534;2024-03-07T03:29:58;2.30;99.90
13944;DHT22;7044;53.286;8.534;2024-03-07T03:32:25;2.50;99.90
13944;DHT22;7044;53.286;8.534;2024-03-07T03:34:52;2.50;99.90
13944;DHT22;7044;53.286;8.534;2024-03-07T03:37:19;2.50;99.90
13944;DHT22;7044;53.286;8.534;2024-03-07T03:39:46;2.70;99.90
13944;DHT22;7044;53.286;8.534;2024-03-07T03:42:15;2.80;99.90
13944;DHT22;7044;53.286;8.534;2024-03-07T03:44:42;2.50;99.90
13944;DHT22;7044;53.286;8.534;2024-03-07T03:47:11;2.60;99.90
13944;DHT22;7044;53.286;8.534;2024-03-07T03:49:38;2.60;99.90
13944;DHT22;7044;53.286;8.534;2024-03-07T03:52:05;2.60;99.90
13944;DHT22;7044;53.286;8.534;2024-03-07T03:54:32;2.60;99.90
13944;DHT22;7044;53.286;8.534;2024-03-07T03:56:59;3.40;99.90
13944;DHT22;7044;53.286;8.534;2024-03-07T03:59:25;2.60;99.90
13944;DHT22;7044;53.286;8.534;2024-03-07T04:01:53;2.60;99.90
13944;DHT22;7044;53.286;8.534;2024-03-07T04:04:21;2.40;99.90
13944;DHT22;7044;53.286;8.534;2024-03-07T04:06:48;2.70;99.90
13944;DHT22;7044;53.286;8.534;2024-03-07T04:09:15;2.60;99.90
13944;DHT22;7044;53.286;8.534;2024-03-07T04:11:44;2.70;99.90
13944;DHT22;7044;53.286;8.534;2024-03-07T04:14:12;2.70;99.90
13944;DHT22;7044;53.286;8.534;2024-03-07T04:16:39;2.70;99.90
13944;DHT22;7044;53.286;8.534;2024-03-07T04:19:06;2.60;99.90
13944;DHT22;7044;53.286;8.534;2024-03-07T04:21:36;2.70;99.90
13944;DHT22;7044;53.286;8.534;2024-03-07T04:24:03;2.70;99.90
13944;DHT22;7044;53.286;8.534;2024-03-07T04:26:30;2.80;99.90
13944;DHT22;7044;53.286;8.534;2024-03-07T04:28:57;2.80;99.90
13944;DHT22;7044;53.286;8.534;2024-03-07T04:33:51;2.90;99.90
13944;DHT22;7044;53.286;8.534;2024-03-07T04:38:47;3.10;99.90
13944;DHT22;7044;53.286;8.534;2024-03-07T04:41:14;2.90;99.90
13944;DHT22;7044;53.286;8.534;2024-03-07T04:43:41;3.00;99.90
13944;DHT22;7044;53.286;8.534;2024-03-07T04:46:09;2.80;99.90
13944;DHT22;7044;53.286;8.534;2024-03-07T04:48:36;2.90;99.90
13944;DHT22;7044;53.286;8.534;2024-03-07T04:51:03;2.80;99.90
13944;DHT22;7044;53.286;8.534;2024-03-07T04:53:30;2.90;99.90
13944;DHT22;7044;53.286;8.534;2024-03-07T04:55:58;2.90;99.90
13944;DHT22;7044;53.286;8.534;2024-03-07T04:58:25;2.00;99.90
13944;DHT22;7044;53.286;8.534;2024-03-07T05:00:52;3.00;99.90
13944;DHT22;7044;53.286;8.534;2024-03-07T05:03:19;2.30;99.90
13944;DHT22;7044;53.286;8.534;2024-03-07T05:05:46;2.90;99.90
13944;DHT22;7044;53.286;8.534;2024-03-07T05:08:13;3.00;99.90
13944;DHT22;7044;53.286;8.534;2024-03-07T05:10:40;2.90;99.90
13944;DHT22;7044;53.286;8.534;2024-03-07T05:13:08;2.90;99.90
13944;DHT22;7044;53.286;8.534;2024-03-07T05:15:36;2.90;99.90
13944;DHT22;7044;53.286;8.534;2024-03-07T05:18:03;2.90;99.90
13944;DHT22;7044;53.286;8.534;2024-03-07T05:20:30;2.90;99.90
13944;DHT22;7044;53.286;8.534;2024-03-07T05:22:57;2.90;99.90
13944;DHT22;7044;53.286;8.534;2024-03-07T05:25:24;2.80;99.90
13944;DHT22;7044;53.286;8.534;2024-03-07T05:27:52;2.90;99.90
13944;DHT22;7044;53.286;8.534;2024-03-07T05:30:21;2.90;99.90
13944;DHT22;7044;53.286;8.534;2024-03-07T05:32:50;2.90;99.90
13944;DHT22;7044;53.286;8.534;2024-03-07T05:35:17;2.50;99.90
13944;DHT22;7044;53.286;8.534;2024-03-07T05:37:44;3.10;99.90
13944;DHT22;7044;53.286;8.534;2024-03-07T05:40:12;3.00;99.90
13944;DHT22;7044;53.286;8.534;2024-03-07T05:42:39;3.00;99.90
13944;DHT22;7044;53.286;8.534;2024-03-07T05:45:07;3.10;99.90
13944;DHT22;7044;53.286;8.534;2024-03-07T05:47:36;3.40;99.90
13944;DHT22;7044;53.286;8.534;2024-03-07T05:50:03;3.00;99.90
13944;DHT22;7044;53.286;8.534;2024-03-07T05:52:32;3.60;99.90
13944;DHT22;7044;53.286;8.534;2024-03-07T05:54:59;3.00;99.90
13944;DHT22;7044;53.286;8.534;2024-03-07T05:57:26;3.50;99.90
13944;DHT22;7044;53.286;8.534;2024-03-07T05:59:53;3.20;99.90
13944;DHT22;7044;53.286;8.534;2024-03-07T06:02:22;3.10;99.90
13944;DHT22;7044;53.286;8.534;2024-03-07T06:04:50;3.20;99.90
13944;DHT22;7044;53.286;8.534;2024-03-07T06:09:44;3.20;99.90
13944;DHT22;7044;53.286;8.534;2024-03-07T06:12:11;3.20;99.90
13944;DHT22;7044;53.286;8.534;2024-03-07T06:17:05;3.80;99.90
13944;DHT22;7044;53.286;8.534;2024-03-07T06:19:32;3.30;99.90
13944;DHT22;7044;53.286;8.534;2024-03-07T06:22:00;3.00;99.90
13944;DHT22;7044;53.286;8.534;2024-03-07T06:24:31;3.60;99.90
13944;DHT22;7044;53.286;8.534;2024-03-07T06:26:59;3.90;99.90
13944;DHT22;7044;53.286;8.534;2024-03-07T06:29:29;3.70;99.90
13944;DHT22;7044;53.286;8.534;2024-03-07T06:31:56;4.10;99.90
13944;DHT22;7044;53.286;8.534;2024-03-07T06:36:53;3.60;99.90
13944;DHT22;7044;53.286;8.534;2024-03-07T06:39:22;3.60;99.90
13944;DHT22;7044;53.286;8.534;2024-03-07T06:41:50;3.50;99.90
13944;DHT22;7044;53.286;8.534;2024-03-07T06:44:17;3.60;99.90
13944;DHT22;7044;53.286;8.534;2024-03-07T06:46:48;3.60;99.90
13944;DHT22;7044;53.286;8.534;2024-03-07T06:49:16;3.60;99.90
13944;DHT22;7044;53.286;8.534;2024-03-07T06:51:43;3.70;99.90
13944;DHT22;7044;53.286;8.534;2024-03-07T06:54:10;3.60;99.90
13944;DHT22;7044;53.286;8.534;2024-03-07T06:56:38;3.70;99.90
13944;DHT22;7044;53.286;8.534;2024-03-07T06:59:08;3.80;99.90
13944;DHT22;7044;53.286;8.534;2024-03-07T07:01:35;3.80;99.90
13944;DHT22;7044;53.286;8.534;2024-03-07T07:04:03;3.80;99.90
13944;DHT22;7044;53.286;8.534;2024-03-07T07:06:30;3.90;99.90
13944;DHT22;7044;53.286;8.534;2024-03-07T07:08:56;3.80;99.90
13944;DHT22;7044;53.286;8.534;2024-03-07T07:11:24;4.00;99.90
13944;DHT22;7044;53.286;8.534;2024-03-07T07:13:52;3.90;99.90
13944;DHT22;7044;53.286;8.534;2024-03-07T07:16:19;4.00;99.90
13944;DHT22;7044;53.286;8.534;2024-03-07T07:18:47;3.90;99.90
13944;DHT22;7044;53.286;8.534;2024-03-07T07:21:14;4.00;99.90
13944;DHT22;7044;53.286;8.534;2024-03-07T07:23:41;4.00;99.90
13944;DHT22;7044;53.286;8.534;2024-03-07T07:26:08;4.00;99.90
13944;DHT22;7044;53.286;8.534;2024-03-07T07:28:35;3.60;99.90
13944;DHT22;7044;53.286;8.534;2024-03-07T07:31:04;4.10;99.90
13944;DHT22;7044;53.286;8.534;2024-03-07T07:33:31;4.10;99.90
13944;DHT22;7044;53.286;8.534;2024-03-07T07:35:58;4.10;99.90
13944;DHT22;7044;53.286;8.534;2024-03-07T07:38:25;4.10;99.90
13944;DHT22;7044;53.286;8.534;2024-03-07T07:40:51;4.20;99.90
13944;DHT22;7044;53.286;8.534;2024-03-07T07:43:18;4.50;99.90
13944;DHT22;7044;53.286;8.534;2024-03-07T07:45:45;4.30;99.90
13944;DHT22;7044;53.286;8.534;2024-03-07T07:48:13;4.20;99.90
13944;DHT22;7044;53.286;8.534;2024-03-07T07:50:42;4.30;99.90
13944;DHT22;7044;53.286;8.534;2024-03-07T07:53:09;4.30;99.90
13944;DHT22;7044;53.286;8.534;2024-03-07T07:55:36;5.00;99.90
13944;DHT22;7044;53.286;8.534;2024-03-07T07:58:04;4.30;99.90
13944;DHT22;7044;53.286;8.534;2024-03-07T08:00:31;4.30;99.90
13944;DHT22;7044;53.286;8.534;2024-03-07T08:02:59;4.30;99.90
13944;DHT22;7044;53.286;8.534;2024-03-07T08:05:29;4.30;99.90
13944;DHT22;7044;53.286;8.534;2024-03-07T08:07:58;4.40;99.90
13944;DHT22;7044;53.286;8.534;2024-03-07T08:10:25;4.30;99.90
13944;DHT22;7044;53.286;8.534;2024-03-07T08:12:54;4.40;99.90
13944;DHT22;7044;53.286;8.534;2024-03-07T08:15:21;4.50;99.90
13944;DHT22;7044;53.286;8.534;2024-03-07T08:17:49;4.50;99.90
13944;DHT22;7044;53.286;8.534;2024-03-07T08:20:18;4.40;99.90
13944;DHT22;7044;53.286;8.534;2024-03-07T08:22:48;4.50;99.90
13944;DHT22;7044;53.286;8.534;2024-03-07T08:25:17;4.40;99.90
13944;DHT22;7044;53.286;8.534;2024-03-07T08:27:45;4.50;99.90
13944;DHT22;7044;53.286;8.534;2024-03-07T08:30:12;4.50;99.90
13944;DHT22;7044;53.286;8.534;2024-03-07T08:35:08;4.40;99.90
13944;DHT22;7044;53.286;8.534;2024-03-07T08:37:36;4.50;99.90
13944;DHT22;7044;53.286;8.534;2024-03-07T08:40:06;4.60;99.90
13944;DHT22;7044;53.286;8.534;2024-03-07T08:42:35;4.60;99.90
13944;DHT22;7044;53.286;8.534;2024-03-07T08:45:04;4.50;99.90
13944;DHT22;7044;53.286;8.534;2024-03-07T08:47:31;4.50;99.90
13944;DHT22;7044;53.286;8.534;2024-03-07T08:49:58;4.40;99.90
13944;DHT22;7044;53.286;8.534;2024-03-07T08:52:25;4.30;99.90
13944;DHT22;7044;53.286;8.534;2024-03-07T08:54:54;4.90;99.90
13944;DHT22;7044;53.286;8.534;2024-03-07T08:57:22;4.40;99.90
13944;DHT22;7044;53.286;8.534;2024-03-07T08:59:49;4.40;99.90
13944;DHT22;7044;53.286;8.534;2024-03-07T09:02:16;4.30;99.90
13944;DHT22;7044;53.286;8.534;2024-03-07T09:04:43;4.30;99.90
13944;DHT22;7044;53.286;8.534;2024-03-07T09:07:10;4.30;99.90
13944;DHT22;7044;53.286;8.534;2024-03-07T09:09:37;4.20;99.90
13944;DHT22;7044;53.286;8.534;2024-03-07T09:12:05;4.30;99.90
13944;DHT22;7044;53.286;8.534;2024-03-07T09:14:33;4.30;99.90
13944;DHT22;7044;53.286;8.534;2024-03-07T09:17:01;4.30;99.90
13944;DHT22;7044;53.286;8.534;2024-03-07T09:19:29;4.30;99.90
13944;DHT22;7044;53.286;8.534;2024-03-07T09:21:56;3.70;99.90
13944;DHT22;7044;53.286;8.534;2024-03-07T09:24:23;3.90;99.90
13944;DHT22;7044;53.286;8.534;2024-03-07T09:26:50;4.20;99.90
13944;DHT22;7044;53.286;8.534;2024-03-07T09:29:17;4.30;99.90
13944;DHT22;7044;53.286;8.534;2024-03-07T09:31:46;4.30;99.90
13944;DHT22;7044;53.286;8.534;2024-03-07T09:34:13;3.70;99.90
13944;DHT22;7044;53.286;8.534;2024-03-07T09:36:40;5.00;99.90
13944;DHT22;7044;53.286;8.534;2024-03-07T09:39:07;5.10;99.90
13944;DHT22;7044;53.286;8.534;2024-03-07T09:41:35;5.10;99.90
13944;DHT22;7044;53.286;8.534;2024-03-07T09:44:02;4.90;99.90
13944;DHT22;7044;53.286;8.534;2024-03-07T09:46:30;4.80;99.90
13944;DHT22;7044;53.286;8.534;2024-03-07T09:49:00;4.60;99.90
13944;DHT22;7044;53.286;8.534;2024-03-07T09:51:28;4.40;99.90
13944;DHT22;7044;53.286;8.534;2024-03-07T09:53:57;5.20;99.90
13944;DHT22;7044;53.286;8.534;2024-03-07T09:56:27;4.30;99.90
13944;DHT22;7044;53.286;8.534;2024-03-07T09:58:57;4.00;99.90
13944;DHT22;7044;53.286;8.534;2024-03-07T10:01:26;4.40;99.90
13944;DHT22;7044;53.286;8.534;2024-03-07T10:04:01;4.50;99.90
13944;DHT22;7044;53.286;8.534;2024-03-07T10:06:37;4.40;99.90
13944;DHT22;7044;53.286;8.534;2024-03-07T10:09:04;4.50;99.90
13944;DHT22;7044;53.286;8.534;2024-03-07T10:11:32;4.50;99.90
13944;DHT22;7044;53.286;8.534;2024-03-07T10:13:58;4.50;99.90
13944;DHT22;7044;53.286;8.534;2024-03-07T10:16:25;4.40;99.90
13944;DHT22;7044;53.286;8.534;2024-03-07T10:18:52;4.40;99.90
13944;DHT22;7044;53.286;8.534;2024-03-07T10:21:20;4.40;99.90
13944;DHT22;7044;53.286;8.534;2024-03-07T10:23:49;4.40;99.90
13944;DHT22;7044;53.286;8.534;2024-03-07T10:26:17;4.50;99.90
13944;DHT22;7044;53.286;8.534;2024-03-07T10:28:45;4.50;99.90
13944;DHT22;7044;53.286;8.534;2024-03-07T10:31:27;4.60;99.90
13944;DHT22;7044;53.286;8.534;2024-03-07T10:33:58;4.50;99.90
13944;DHT22;7044;53.286;8.534;2024-03-07T10:36:27;4.40;99.90
13944;DHT22;7044;53.286;8.534;2024-03-07T10:38:56;4.50;99.90
13944;DHT22;7044;53.286;8.534;2024-03-07T10:41:28;4.70;99.90
13944;DHT22;7044;53.286;8.534;2024-03-07T10:43:57;4.90;99.90
13944;DHT22;7044;53.286;8.534;2024-03-07T10:46:25;4.70;99.90
13944;DHT22;7044;53.286;8.534;2024-03-07T10:48:55;4.90;99.90
13944;DHT22;7044;53.286;8.534;2024-03-07T10:51:28;4.90;99.90
13944;DHT22;7044;53.286;8.534;2024-03-07T10:54:02;4.90;99.90
13944;DHT22;7044;53.286;8.534;2024-03-07T10:56:47;5.10;99.90
13944;DHT22;7044;53.286;8.534;2024-03-07T10:59:18;5.10;99.90
13944;DHT22;7044;53.286;8.534;2024-03-07T11:01:49;5.40;99.90
13944;DHT22;7044;53.286;8.534;2024-03-07T11:04:22;5.30;99.90
13944;DHT22;7044;53.286;8.534;2024-03-07T11:06:51;5.50;99.90
13944;DHT22;7044;53.286;8.534;2024-03-07T11:09:20;5.60;99.90
13944;DHT22;7044;53.286;8.534;2024-03-07T11:11:49;5.60;99.90
13944;DHT22;7044;53.286;8.534;2024-03-07T11:14:17;5.60;99.90
13944;DHT22;7044;53.286;8.534;2024-03-07T11:16:46;5.80;99.90
13944;DHT22;7044;53.286;8.534;2024-03-07T11:19:20;5.80;99.90
13944;DHT22;7044;53.286;8.534;2024-03-07T11:21:48;5.50;99.90
13944;DHT22;7044;53.286;8.534;2024-03-07T11:24:26;5.60;99.90
13944;DHT22;7044;53.286;8.534;2024-03-07T11:26:55;5.80;99.90
13944;DHT22;7044;53.286;8.534;2024-03-07T11:29:55;5.90;99.90
13944;DHT22;7044;53.286;8.534;2024-03-07T11:32:34;5.90;99.90
13944;DHT22;7044;53.286;8.534;2024-03-07T11:35:04;6.00;99.90
13944;DHT22;7044;53.286;8.534;2024-03-07T11:37:40;5.90;99.90
13944;DHT22;7044;53.286;8.534;2024-03-07T11:40:12;5.80;99.90
13944;DHT22;7044;53.286;8.534;2024-03-07T11:42:46;5.80;99.90
13944;DHT22;7044;53.286;8.534;2024-03-07T11:45:14;5.90;99.90
13944;DHT22;7044;53.286;8.534;2024-03-07T11:47:51;6.00;99.90
13944;DHT22;7044;53.286;8.534;2024-03-07T11:50:23;6.20;99.90
13944;DHT22;7044;53.286;8.534;2024-03-07T11:52:51;6.10;99.90
13944;DHT22;7044;53.286;8.534;2024-03-07T11:55:21;6.10;99.90
13944;DHT22;7044;53.286;8.534;2024-03-07T11:57:48;6.10;99.90
13944;DHT22;7044;53.286;8.534;2024-03-07T12:00:17;6.10;99.90
13944;DHT22;7044;53.286;8.534;2024-03-07T12:02:45;6.00;99.90
13944;DHT22;7044;53.286;8.534;2024-03-07T12:05:14;6.00;99.90
13944;DHT22;7044;53.286;8.534;2024-03-07T12:07:42;6.00;99.90
13944;DHT22;7044;53.286;8.534;2024-03-07T12:10:09;6.20;99.90
13944;DHT22;7044;53.286;8.534;2024-03-07T12:12:38;6.20;99.90
13944;DHT22;7044;53.286;8.534;2024-03-07T12:15:06;6.30;99.90
13944;DHT22;7044;53.286;8.534;2024-03-07T12:17:41;6.30;99.90
13944;DHT22;7044;53.286;8.534;2024-03-07T12:20:08;6.20;99.90
13944;DHT22;7044;53.286;8.534;2024-03-07T12:22:50;6.00;99.90
13944;DHT22;7044;53.286;8.534;2024-03-07T12:25:19;6.20;99.90
13944;DHT22;7044;53.286;8.534;2024-03-07T12:27:59;6.10;99.90
13944;DHT22;7044;53.286;8.534;2024-03-07T12:30:28;6.40;99.90
13944;DHT22;7044;53.286;8.534;2024-03-07T12:32:58;6.50;99.90
13944;DHT22;7044;53.286;8.534;2024-03-07T12:35:25;6.30;99.90
13944;DHT22;7044;53.286;8.534;2024-03-07T12:37:53;6.30;99.90
13944;DHT22;7044;53.286;8.534;2024-03-07T12:40:21;6.40;99.90
13944;DHT22;7044;53.286;8.534;2024-03-07T12:42:52;7.10;99.90
13944;DHT22;7044;53.286;8.534;2024-03-07T12:45:19;6.50;99.90
13944;DHT22;7044;53.286;8.534;2024-03-07T12:47:47;6.50;99.90
13944;DHT22;7044;53.286;8.534;2024-03-07T12:50:17;6.30;99.90
13944;DHT22;7044;53.286;8.534;2024-03-07T12:52:46;6.30;99.90
13944;DHT22;7044;53.286;8.534;2024-03-07T12:55:15;6.30;99.90
13944;DHT22;7044;53.286;8.534;2024-03-07T12:57:47;6.20;99.90
13944;DHT22;7044;53.286;8.534;2024-03-07T13:00:17;6.40;99.90
13944;DHT22;7044;53.286;8.534;2024-03-07T13:02:46;6.20;99.90
13944;DHT22;7044;53.286;8.534;2024-03-07T13:05:14;6.30;99.90
13944;DHT22;7044;53.286;8.534;2024-03-07T13:07:45;6.20;99.90
13944;DHT22;7044;53.286;8.534;2024-03-07T13:10:13;6.00;99.90
13944;DHT22;7044;53.286;8.534;2024-03-07T13:12:42;6.30;99.90
13944;DHT22;7044;53.286;8.534;2024-03-07T13:15:11;6.40;99.90
13944;DHT22;7044;53.286;8.534;2024-03-07T13:17:39;6.40;99.90
13944;DHT22;7044;53.286;8.534;2024-03-07T13:20:10;6.40;99.90
13944;DHT22;7044;53.286;8.534;2024-03-07T13:22:41;7.00;99.90
13944;DHT22;7044;53.286;8.534;2024-03-07T13:25:10;6.30;99.90
13944;DHT22;7044;53.286;8.534;2024-03-07T13:27:44;6.40;99.90
13944;DHT22;7044;53.286;8.534;2024-03-07T13:30:16;6.40;99.90
13944;DHT22;7044;53.286;8.534;2024-03-07T13:32:50;6.40;99.90
13944;DHT22;7044;53.286;8.534;2024-03-07T13:35:19;6.40;99.90
13944;DHT22;7044;53.286;8.534;2024-03-07T13:37:48;6.60;99.90
13944;DHT22;7044;53.286;8.534;2024-03-07T13:40:16;6.60;99.90
13944;DHT22;7044;53.286;8.534;2024-03-07T13:42:53;6.40;99.90
13944;DHT22;7044;53.286;8.534;2024-03-07T13:45:21;6.40;99.90
13944;DHT22;7044;53.286;8.534;2024-03-07T13:47:50;6.40;99.90
13944;DHT22;7044;53.286;8.534;2024-03-07T13:50:18;6.40;99.90
13944;DHT22;7044;53.286;8.534;2024-03-07T13:52:47;6.40;99.90
13944;DHT22;7044;53.286;8.534;2024-03-07T13:58:00;6.40;99.90
13944;DHT22;7044;53.286;8.534;2024-03-07T14:00:41;6.40;99.90
13944;DHT22;7044;53.286;8.534;2024-03-07T14:03:48;6.60;99.90
13944;DHT22;7044;53.286;8.534;2024-03-07T14:06:29;6.30;99.90
13944;DHT22;7044;53.286;8.534;2024-03-07T14:09:27;6.30;99.90
13944;DHT22;7044;53.286;8.534;2024-03-07T14:12:27;5.30;99.90
13944;DHT22;7044;53.286;8.534;2024-03-07T14:18:51;6.20;99.90
13944;DHT22;7044;53.286;8.534;2024-03-07T14:21:45;6.00;99.90
13944;DHT22;7044;53.286;8.534;2024-03-07T14:24:36;6.10;99.90
13944;DHT22;7044;53.286;8.534;2024-03-07T14:27:24;6.10;99.90
13944;DHT22;7044;53.286;8.534;2024-03-07T14:30:07;6.10;99.90
13944;DHT22;7044;53.286;8.534;2024-03-07T14:32:38;6.00;99.90
13944;DHT22;7044;53.286;8.534;2024-03-07T14:35:12;6.00;99.90
13944;DHT22;7044;53.286;8.534;2024-03-07T14:37:46;6.10;99.90
13944;DHT22;7044;53.286;8.534;2024-03-07T14:40:16;6.10;99.90
13944;DHT22;7044;53.286;8.534;2024-03-07T14:42:46;6.10;99.90
13944;DHT22;7044;53.286;8.534;2024-03-07T14:45:17;6.10;99.90
13944;DHT22;7044;53.286;8.534;2024-03-07T14:47:48;6.00;99.90
13944;DHT22;7044;53.286;8.534;2024-03-07T14:50:18;6.60;99.90
13944;DHT22;7044;53.286;8.534;2024-03-07T14:52:46;6.20;99.90
13944;DHT22;7044;53.286;8.534;2024-03-07T14:55:13;6.10;99.90
13944;DHT22;7044;53.286;8.534;2024-03-07T14:57:44;6.10;99.90
13944;DHT22;7044;53.286;8.534;2024-03-07T15:00:12;6.10;99.90
13944;DHT22;7044;53.286;8.534;2024-03-07T15:02:46;7.70;99.90
13944;DHT22;7044;53.286;8.534;2024-03-07T15:05:14;6.10;99.90
13944;DHT22;7044;53.286;8.534;2024-03-07T15:07:43;6.10;99.90
13944;DHT22;7044;53.286;8.534;2024-03-07T15:10:16;6.10;99.90
13944;DHT22;7044;53.286;8.534;2024-03-07T15:12:44;6.10;99.90
13944;DHT22;7044;53.286;8.534;2024-03-07T15:15:12;6.60;99.90
13944;DHT22;7044;53.286;8.534;2024-03-07T15:17:40;6.10;99.90
13944;DHT22;7044;53.286;8.534;2024-03-07T15:20:08;6.10;99.90
13944;DHT22;7044;53.286;8.534;2024-03-07T15:22:41;6.40;99.90
13944;DHT22;7044;53.286;8.534;2024-03-07T15:25:13;6.40;99.90
13944;DHT22;7044;53.286;8.534;2024-03-07T15:27:43;6.60;99.90
13944;DHT22;7044;53.286;8.534;2024-03-07T15:30:10;6.80;99.90
13944;DHT22;7044;53.286;8.534;2024-03-07T15:32:40;6.80;99.90
13944;DHT22;7044;53.286;8.534;2024-03-07T15:35:08;6.60;99.90
13944;DHT22;7044;53.286;8.534;2024-03-07T15:40:06;6.40;99.90
13944;DHT22;7044;53.286;8.534;2024-03-07T15:42:39;6.30;99.90
13944;DHT22;7044;53.286;8.534;2024-03-07T15:45:07;6.00;99.90
13944;DHT22;7044;53.286;8.534;2024-03-07T15:47:42;5.80;99.90
13944;DHT22;7044;53.286;8.534;2024-03-07T15:50:10;5.70;99.90
13944;DHT22;7044;53.286;8.534;2024-03-07T15:52:38;5.60;99.90
13944;DHT22;7044;53.286;8.534;2024-03-07T15:55:06;5.70;99.90
13944;DHT22;7044;53.286;8.534;2024-03-07T15:57:43;5.60;99.90
13944;DHT22;7044;53.286;8.534;2024-03-07T16:00:13;5.50;99.90
13944;DHT22;7044;53.286;8.534;2024-03-07T16:02:53;5.50;99.90
13944;DHT22;7044;53.286;8.534;2024-03-07T16:05:21;5.60;99.90
13944;DHT22;7044;53.286;8.534;2024-03-07T16:07:50;6.40;99.90
13944;DHT22;7044;53.286;8.534;2024-03-07T16:10:17;5.60;99.90
13944;DHT22;7044;53.286;8.534;2024-03-07T16:12:45;5.60;99.90
13944;DHT22;7044;53.286;8.534;2024-03-07T16:15:13;5.60;99.90
13944;DHT22;7044;53.286;8.534;2024-03-07T16:17:41;5.60;99.90
13944;DHT22;7044;53.286;8.534;2024-03-07T16:20:11;5.70;99.90
13944;DHT22;7044;53.286;8.534;2024-03-07T16:22:40;5.70;99.90
13944;DHT22;7044;53.286;8.534;2024-03-07T16:25:08;5.70;99.90
13944;DHT22;7044;53.286;8.534;2024-03-07T16:27:36;5.70;99.90
13944;DHT22;7044;53.286;8.534;2024-03-07T16:30:06;5.30;99.90
13944;DHT22;7044;53.286;8.534;2024-03-07T16:32:33;5.70;99.90
13944;DHT22;7044;53.286;8.534;2024-03-07T16:35:02;5.60;99.90
13944;DHT22;7044;53.286;8.534;2024-03-07T16:40:05;5.70;99.90
13944;DHT22;7044;53.286;8.534;2024-03-07T16:42:34;5.70;99.90
13944;DHT22;7044;53.286;8.534;2024-03-07T16:45:07;5.70;99.90